sensor_id;sensor_type;location;lat;lon;timestamp;P1;durP1;ratioP1;P2;durP2;ratioP2
11414;SDS011;5763;42.714;23.244;2023-07-02T00:01:50;6.82;;;6.13;;
11414;SDS011;5763;42.714;23.244;2023-07-02T00:04:18;7.53;;;6.20;;
11414;SDS011;5763;42.714;23.244;2023-07-02T00:06:45;6.88;;;5.43;;
11414;SDS011;5763;42.714;23.244;2023-07-02T00:09:13;5.78;;;4.85;;
11414;SDS011;5763;42.714;23.244;2023-07-02T00:11:41;7.43;;;4.70;;
11414;SDS011;5763;42.714;23.244;2023-07-02T00:14:10;6.53;;;4.68;;
11414;SDS011;5763;42.714;23.244;2023-07-02T00:16:37;6.05;;;4.72;;
11414;SDS011;5763;42.714;23.244;2023-07-02T00:19:06;5.70;;;4.88;;
11414;SDS011;5763;42.714;23.244;2023-07-02T00:21:33;6.07;;;4.43;;
11414;SDS011;5763;42.714;23.244;2023-07-02T00:24:02;5.80;;;4.53;;
11414;SDS011;5763;42.714;23.244;2023-07-02T00:26:29;9.13;;;5.20;;
11414;SDS011;5763;42.714;23.244;2023-07-02T00:28:56;7.72;;;5.07;;
11414;SDS011;5763;42.714;23.244;2023-07-02T00:31:23;6.10;;;4.95;;
11414;SDS011;5763;42.714;23.244;2023-07-02T00:33:50;5.32;;;4.50;;
11414;SDS011;5763;42.714;23.244;2023-07-02T00:36:18;7.40;;;4.82;;
11414;SDS011;5763;42.714;23.244;2023-07-02T00:38:45;5.47;;;4.22;;
11414;SDS011;5763;42.714;23.244;2023-07-02T00:41:13;7.95;;;5.03;;
11414;SDS011;5763;42.714;23.244;2023-07-02T00:43:40;5.75;;;4.47;;
11414;SDS011;5763;42.714;23.244;2023-07-02T00:46:10;7.18;;;4.70;;
11414;SDS011;5763;42.714;23.244;2023-07-02T00:48:43;9.02;;;4.65;;
11414;SDS011;5763;42.714;23.244;2023-07-02T00:51:10;5.55;;;4.28;;
11414;SDS011;5763;42.714;23.244;2023-07-02T00:53:41;6.32;;;4.47;;
11414;SDS011;5763;42.714;23.244;2023-07-02T00:56:07;8.20;;;4.85;;
11414;SDS011;5763;42.714;23.244;2023-07-02T00:58:34;6.80;;;4.32;;
11414;SDS011;5763;42.714;23.244;2023-07-02T01:01:05;4.72;;;4.05;;
11414;SDS011;5763;42.714;23.244;2023-07-02T01:03:34;8.68;;;4.85;;
11414;SDS011;5763;42.714;23.244;2023-07-02T01:06:02;4.85;;;4.30;;
11414;SDS011;5763;42.714;23.244;2023-07-02T01:08:29;6.90;;;5.18;;
11414;SDS011;5763;42.714;23.244;2023-07-02T01:10:57;7.88;;;4.85;;
11414;SDS011;5763;42.714;23.244;2023-07-02T01:13:25;6.72;;;4.57;;
11414;SDS011;5763;42.714;23.244;2023-07-02T01:15:53;7.28;;;4.78;;
11414;SDS011;5763;42.714;23.244;2023-07-02T01:18:20;6.22;;;5.10;;
11414;SDS011;5763;42.714;23.244;2023-07-02T01:20:50;6.75;;;5.55;;
11414;SDS011;5763;42.714;23.244;2023-07-02T01:23:18;6.47;;;4.88;;
11414;SDS011;5763;42.714;23.244;2023-07-02T01:25:45;7.45;;;5.45;;
11414;SDS011;5763;42.714;23.244;2023-07-02T01:28:12;8.10;;;5.45;;
11414;SDS011;5763;42.714;23.244;2023-07-02T01:30:39;8.23;;;5.55;;
11414;SDS011;5763;42.714;23.244;2023-07-02T01:33:06;9.70;;;5.90;;
11414;SDS011;5763;42.714;23.244;2023-07-02T01:35:33;7.80;;;5.72;;
11414;SDS011;5763;42.714;23.244;2023-07-02T01:38:01;8.63;;;6.28;;
11414;SDS011;5763;42.714;23.244;2023-07-02T01:40:28;8.20;;;6.00;;
11414;SDS011;5763;42.714;23.244;2023-07-02T01:42:54;6.30;;;5.07;;
11414;SDS011;5763;42.714;23.244;2023-07-02T01:45:21;9.25;;;5.70;;
11414;SDS011;5763;42.714;23.244;2023-07-02T01:47:48;7.57;;;5.40;;
11414;SDS011;5763;42.714;23.244;2023-07-02T01:50:15;7.97;;;5.97;;
11414;SDS011;5763;42.714;23.244;2023-07-02T01:52:41;7.22;;;5.30;;
11414;SDS011;5763;42.714;23.244;2023-07-02T01:55:09;9.88;;;5.75;;
11414;SDS011;5763;42.714;23.244;2023-07-02T01:57:36;9.02;;;5.10;;
11414;SDS011;5763;42.714;23.244;2023-07-02T02:00:03;6.75;;;5.45;;
11414;SDS011;5763;42.714;23.244;2023-07-02T02:02:32;6.47;;;4.60;;
11414;SDS011;5763;42.714;23.244;2023-07-02T02:04:59;6.68;;;4.88;;
11414;SDS011;5763;42.714;23.244;2023-07-02T02:07:26;7.25;;;5.38;;
11414;SDS011;5763;42.714;23.244;2023-07-02T02:09:52;7.05;;;4.85;;
11414;SDS011;5763;42.714;23.244;2023-07-02T02:12:21;8.88;;;5.30;;
11414;SDS011;5763;42.714;23.244;2023-07-02T02:14:47;8.63;;;5.38;;
11414;SDS011;5763;42.714;23.244;2023-07-02T02:17:14;9.75;;;5.45;;
11414;SDS011;5763;42.714;23.244;2023-07-02T02:19:41;8.60;;;5.63;;
11414;SDS011;5763;42.714;23.244;2023-07-02T02:22:07;6.28;;;5.18;;
11414;SDS011;5763;42.714;23.244;2023-07-02T02:24:34;6.50;;;5.03;;
11414;SDS011;5763;42.714;23.244;2023-07-02T02:27:01;8.73;;;5.07;;
11414;SDS011;5763;42.714;23.244;2023-07-02T02:29:29;8.23;;;5.05;;
11414;SDS011;5763;42.714;23.244;2023-07-02T02:31:56;8.10;;;5.40;;
11414;SDS011;5763;42.714;23.244;2023-07-02T02:34:22;7.30;;;5.07;;
11414;SDS011;5763;42.714;23.244;2023-07-02T02:36:49;7.18;;;4.80;;
11414;SDS011;5763;42.714;23.244;2023-07-02T02:39:16;7.50;;;4.90;;
11414;SDS011;5763;42.714;23.244;2023-07-02T02:41:43;8.77;;;5.72;;
11414;SDS011;5763;42.714;23.244;2023-07-02T02:44:09;10.02;;;5.30;;
11414;SDS011;5763;42.714;23.244;2023-07-02T02:46:37;7.85;;;5.07;;
11414;SDS011;5763;42.714;23.244;2023-07-02T02:49:04;10.00;;;5.60;;
11414;SDS011;5763;42.714;23.244;2023-07-02T02:51:31;8.18;;;5.60;;
11414;SDS011;5763;42.714;23.244;2023-07-02T02:53:57;8.77;;;5.35;;
11414;SDS011;5763;42.714;23.244;2023-07-02T02:56:24;7.68;;;5.07;;
11414;SDS011;5763;42.714;23.244;2023-07-02T02:58:51;7.85;;;5.10;;
11414;SDS011;5763;42.714;23.244;2023-07-02T03:01:19;10.25;;;6.13;;
11414;SDS011;5763;42.714;23.244;2023-07-02T03:03:47;7.35;;;5.50;;
11414;SDS011;5763;42.714;23.244;2023-07-02T03:06:13;10.23;;;6.05;;
11414;SDS011;5763;42.714;23.244;2023-07-02T03:08:40;11.23;;;5.88;;
11414;SDS011;5763;42.714;23.244;2023-07-02T03:11:07;8.65;;;5.47;;
11414;SDS011;5763;42.714;23.244;2023-07-02T03:13:34;7.65;;;5.78;;
11414;SDS011;5763;42.714;23.244;2023-07-02T03:16:01;8.90;;;5.80;;
11414;SDS011;5763;42.714;23.244;2023-07-02T03:18:27;8.80;;;5.30;;
11414;SDS011;5763;42.714;23.244;2023-07-02T03:20:55;8.43;;;5.32;;
11414;SDS011;5763;42.714;23.244;2023-07-02T03:23:22;7.80;;;5.57;;
11414;SDS011;5763;42.714;23.244;2023-07-02T03:25:49;9.60;;;5.70;;
11414;SDS011;5763;42.714;23.244;2023-07-02T03:28:16;10.40;;;6.75;;
11414;SDS011;5763;42.714;23.244;2023-07-02T03:30:42;9.43;;;5.78;;
11414;SDS011;5763;42.714;23.244;2023-07-02T03:33:09;8.98;;;5.38;;
11414;SDS011;5763;42.714;23.244;2023-07-02T03:35:36;8.63;;;5.43;;
11414;SDS011;5763;42.714;23.244;2023-07-02T03:38:04;7.45;;;5.75;;
11414;SDS011;5763;42.714;23.244;2023-07-02T03:40:32;8.57;;;5.90;;
11414;SDS011;5763;42.714;23.244;2023-07-02T03:42:58;8.00;;;5.40;;
11414;SDS011;5763;42.714;23.244;2023-07-02T03:45:25;10.45;;;5.53;;
11414;SDS011;5763;42.714;23.244;2023-07-02T03:47:52;9.30;;;5.95;;
11414;SDS011;5763;42.714;23.244;2023-07-02T03:50:18;8.02;;;5.95;;
11414;SDS011;5763;42.714;23.244;2023-07-02T03:52:45;10.88;;;6.15;;
11414;SDS011;5763;42.714;23.244;2023-07-02T03:55:13;8.35;;;5.57;;
11414;SDS011;5763;42.714;23.244;2023-07-02T03:57:40;9.00;;;5.80;;
11414;SDS011;5763;42.714;23.244;2023-07-02T04:00:08;8.73;;;5.80;;
11414;SDS011;5763;42.714;23.244;2023-07-02T04:02:36;9.55;;;5.75;;
11414;SDS011;5763;42.714;23.244;2023-07-02T04:05:03;9.20;;;5.82;;
11414;SDS011;5763;42.714;23.244;2023-07-02T04:07:31;9.15;;;6.18;;
11414;SDS011;5763;42.714;23.244;2023-07-02T04:09:57;11.02;;;5.75;;
11414;SDS011;5763;42.714;23.244;2023-07-02T04:12:25;10.38;;;5.70;;
11414;SDS011;5763;42.714;23.244;2023-07-02T04:14:52;9.63;;;6.05;;
11414;SDS011;5763;42.714;23.244;2023-07-02T04:17:19;9.30;;;5.80;;
11414;SDS011;5763;42.714;23.244;2023-07-02T04:19:46;8.35;;;5.38;;
11414;SDS011;5763;42.714;23.244;2023-07-02T04:22:12;6.10;;;5.47;;
11414;SDS011;5763;42.714;23.244;2023-07-02T04:24:39;7.65;;;5.57;;
11414;SDS011;5763;42.714;23.244;2023-07-02T04:27:06;8.25;;;5.78;;
11414;SDS011;5763;42.714;23.244;2023-07-02T04:29:34;7.63;;;5.70;;
11414;SDS011;5763;42.714;23.244;2023-07-02T04:32:01;9.40;;;6.00;;
11414;SDS011;5763;42.714;23.244;2023-07-02T04:34:28;9.68;;;5.68;;
11414;SDS011;5763;42.714;23.244;2023-07-02T04:36:55;9.65;;;5.80;;
11414;SDS011;5763;42.714;23.244;2023-07-02T04:39:22;12.65;;;6.43;;
11414;SDS011;5763;42.714;23.244;2023-07-02T04:41:48;8.95;;;5.90;;
11414;SDS011;5763;42.714;23.244;2023-07-02T04:44:17;8.95;;;5.85;;
11414;SDS011;5763;42.714;23.244;2023-07-02T04:46:47;10.73;;;6.10;;
11414;SDS011;5763;42.714;23.244;2023-07-02T04:49:14;8.30;;;6.32;;
11414;SDS011;5763;42.714;23.244;2023-07-02T04:51:41;10.82;;;6.07;;
11414;SDS011;5763;42.714;23.244;2023-07-02T04:54:07;7.60;;;6.28;;
11414;SDS011;5763;42.714;23.244;2023-07-02T04:56:34;9.60;;;6.35;;
11414;SDS011;5763;42.714;23.244;2023-07-02T04:59:01;8.55;;;5.90;;
11414;SDS011;5763;42.714;23.244;2023-07-02T05:01:27;10.75;;;6.32;;
11414;SDS011;5763;42.714;23.244;2023-07-02T05:03:56;8.85;;;5.97;;
11414;SDS011;5763;42.714;23.244;2023-07-02T05:06:22;9.43;;;6.05;;
11414;SDS011;5763;42.714;23.244;2023-07-02T05:08:49;8.80;;;5.78;;
11414;SDS011;5763;42.714;23.244;2023-07-02T05:11:17;9.93;;;5.63;;
11414;SDS011;5763;42.714;23.244;2023-07-02T05:13:44;8.38;;;6.00;;
11414;SDS011;5763;42.714;23.244;2023-07-02T05:16:11;12.15;;;6.53;;
11414;SDS011;5763;42.714;23.244;2023-07-02T05:18:38;9.10;;;6.43;;
11414;SDS011;5763;42.714;23.244;2023-07-02T05:21:07;8.77;;;6.40;;
11414;SDS011;5763;42.714;23.244;2023-07-02T05:23:34;10.00;;;6.55;;
11414;SDS011;5763;42.714;23.244;2023-07-02T05:26:01;9.68;;;6.18;;
11414;SDS011;5763;42.714;23.244;2023-07-02T05:28:28;9.13;;;6.70;;
11414;SDS011;5763;42.714;23.244;2023-07-02T05:30:55;7.70;;;5.75;;
11414;SDS011;5763;42.714;23.244;2023-07-02T05:33:21;9.40;;;6.90;;
11414;SDS011;5763;42.714;23.244;2023-07-02T05:35:48;9.35;;;6.65;;
11414;SDS011;5763;42.714;23.244;2023-07-02T05:38:17;9.25;;;6.72;;
11414;SDS011;5763;42.714;23.244;2023-07-02T05:40:44;10.85;;;7.03;;
11414;SDS011;5763;42.714;23.244;2023-07-02T05:43:10;10.43;;;6.25;;
11414;SDS011;5763;42.714;23.244;2023-07-02T05:45:37;9.25;;;6.88;;
11414;SDS011;5763;42.714;23.244;2023-07-02T05:48:04;10.93;;;7.60;;
11414;SDS011;5763;42.714;23.244;2023-07-02T05:50:31;10.68;;;6.72;;
11414;SDS011;5763;42.714;23.244;2023-07-02T05:52:58;10.45;;;6.57;;
11414;SDS011;5763;42.714;23.244;2023-07-02T05:55:26;8.88;;;6.90;;
11414;SDS011;5763;42.714;23.244;2023-07-02T05:57:53;8.32;;;6.90;;
11414;SDS011;5763;42.714;23.244;2023-07-02T06:00:22;10.63;;;6.95;;
11414;SDS011;5763;42.714;23.244;2023-07-02T06:02:49;10.20;;;7.43;;
11414;SDS011;5763;42.714;23.244;2023-07-02T06:05:16;13.38;;;9.15;;
11414;SDS011;5763;42.714;23.244;2023-07-02T06:07:43;15.68;;;9.05;;
11414;SDS011;5763;42.714;23.244;2023-07-02T06:10:09;12.48;;;9.68;;
11414;SDS011;5763;42.714;23.244;2023-07-02T06:12:38;11.73;;;8.75;;
11414;SDS011;5763;42.714;23.244;2023-07-02T06:15:05;12.55;;;9.13;;
11414;SDS011;5763;42.714;23.244;2023-07-02T06:17:32;11.73;;;8.88;;
11414;SDS011;5763;42.714;23.244;2023-07-02T06:19:59;12.55;;;8.82;;
11414;SDS011;5763;42.714;23.244;2023-07-02T06:22:25;10.82;;;9.20;;
11414;SDS011;5763;42.714;23.244;2023-07-02T06:24:52;10.48;;;7.95;;
11414;SDS011;5763;42.714;23.244;2023-07-02T06:27:19;9.65;;;7.65;;
11414;SDS011;5763;42.714;23.244;2023-07-02T06:29:47;13.98;;;8.07;;
11414;SDS011;5763;42.714;23.244;2023-07-02T06:32:14;10.93;;;7.93;;
11414;SDS011;5763;42.714;23.244;2023-07-02T06:34:41;10.65;;;7.68;;
11414;SDS011;5763;42.714;23.244;2023-07-02T06:37:08;10.13;;;7.10;;
11414;SDS011;5763;42.714;23.244;2023-07-02T06:39:35;9.07;;;7.47;;
11414;SDS011;5763;42.714;23.244;2023-07-02T06:42:01;9.32;;;7.55;;
11414;SDS011;5763;42.714;23.244;2023-07-02T06:44:28;12.50;;;7.10;;
11414;SDS011;5763;42.714;23.244;2023-07-02T06:46:56;10.13;;;6.57;;
11414;SDS011;5763;42.714;23.244;2023-07-02T06:49:23;8.82;;;6.70;;
11414;SDS011;5763;42.714;23.244;2023-07-02T06:51:50;9.43;;;7.03;;
11414;SDS011;5763;42.714;23.244;2023-07-02T06:54:17;10.48;;;6.65;;
11414;SDS011;5763;42.714;23.244;2023-07-02T06:56:43;10.45;;;7.45;;
11414;SDS011;5763;42.714;23.244;2023-07-02T06:59:10;10.30;;;7.43;;
11414;SDS011;5763;42.714;23.244;2023-07-02T07:01:37;10.00;;;6.35;;
11414;SDS011;5763;42.714;23.244;2023-07-02T07:04:05;9.93;;;6.78;;
11414;SDS011;5763;42.714;23.244;2023-07-02T07:06:32;10.57;;;7.30;;
11414;SDS011;5763;42.714;23.244;2023-07-02T07:08:59;11.02;;;7.22;;
11414;SDS011;5763;42.714;23.244;2023-07-02T07:11:25;11.45;;;7.00;;
11414;SDS011;5763;42.714;23.244;2023-07-02T07:13:52;11.25;;;7.47;;
11414;SDS011;5763;42.714;23.244;2023-07-02T07:16:19;11.48;;;8.23;;
11414;SDS011;5763;42.714;23.244;2023-07-02T07:18:45;11.80;;;8.70;;
11414;SDS011;5763;42.714;23.244;2023-07-02T07:21:14;10.55;;;7.88;;
11414;SDS011;5763;42.714;23.244;2023-07-02T07:23:41;10.07;;;8.07;;
11414;SDS011;5763;42.714;23.244;2023-07-02T07:26:07;11.80;;;7.72;;
11414;SDS011;5763;42.714;23.244;2023-07-02T07:28:34;9.32;;;7.32;;
11414;SDS011;5763;42.714;23.244;2023-07-02T07:31:01;11.35;;;7.75;;
11414;SDS011;5763;42.714;23.244;2023-07-02T07:33:28;10.55;;;7.40;;
11414;SDS011;5763;42.714;23.244;2023-07-02T07:35:54;10.00;;;7.75;;
11414;SDS011;5763;42.714;23.244;2023-07-02T07:38:23;11.20;;;6.80;;
11414;SDS011;5763;42.714;23.244;2023-07-02T07:40:49;8.63;;;6.05;;
11414;SDS011;5763;42.714;23.244;2023-07-02T07:43:16;6.78;;;5.45;;
11414;SDS011;5763;42.714;23.244;2023-07-02T07:45:43;8.30;;;5.05;;
11414;SDS011;5763;42.714;23.244;2023-07-02T07:48:09;6.85;;;5.32;;
11414;SDS011;5763;42.714;23.244;2023-07-02T07:50:36;5.60;;;4.45;;
11414;SDS011;5763;42.714;23.244;2023-07-02T07:53:04;7.03;;;5.03;;
11414;SDS011;5763;42.714;23.244;2023-07-02T07:55:33;8.48;;;6.00;;
11414;SDS011;5763;42.714;23.244;2023-07-02T07:58:00;7.97;;;4.97;;
11414;SDS011;5763;42.714;23.244;2023-07-02T08:00:27;7.38;;;6.05;;
11414;SDS011;5763;42.714;23.244;2023-07-02T08:02:53;8.32;;;5.55;;
11414;SDS011;5763;42.714;23.244;2023-07-02T08:05:21;7.90;;;5.22;;
11414;SDS011;5763;42.714;23.244;2023-07-02T08:07:48;7.20;;;5.20;;
11414;SDS011;5763;42.714;23.244;2023-07-02T08:10:15;5.80;;;4.88;;
11414;SDS011;5763;42.714;23.244;2023-07-02T08:12:43;6.53;;;4.50;;
11414;SDS011;5763;42.714;23.244;2023-07-02T08:15:10;7.80;;;5.40;;
11414;SDS011;5763;42.714;23.244;2023-07-02T08:17:37;8.60;;;5.55;;
11414;SDS011;5763;42.714;23.244;2023-07-02T08:20:04;6.30;;;5.22;;
11414;SDS011;5763;42.714;23.244;2023-07-02T08:22:34;6.43;;;4.80;;
11414;SDS011;5763;42.714;23.244;2023-07-02T08:25:01;7.78;;;5.13;;
11414;SDS011;5763;42.714;23.244;2023-07-02T08:27:28;6.20;;;4.53;;
11414;SDS011;5763;42.714;23.244;2023-07-02T08:29:56;6.82;;;5.28;;
11414;SDS011;5763;42.714;23.244;2023-07-02T08:32:23;10.23;;;6.05;;
11414;SDS011;5763;42.714;23.244;2023-07-02T08:34:49;11.15;;;6.25;;
11414;SDS011;5763;42.714;23.244;2023-07-02T08:37:16;7.28;;;6.43;;
11414;SDS011;5763;42.714;23.244;2023-07-02T08:39:43;11.43;;;8.18;;
11414;SDS011;5763;42.714;23.244;2023-07-02T08:42:10;10.10;;;6.90;;
11414;SDS011;5763;42.714;23.244;2023-07-02T08:44:37;9.05;;;7.50;;
11414;SDS011;5763;42.714;23.244;2023-07-02T08:47:06;9.27;;;7.88;;
11414;SDS011;5763;42.714;23.244;2023-07-02T08:49:33;11.63;;;8.20;;
11414;SDS011;5763;42.714;23.244;2023-07-02T08:51:59;7.63;;;6.50;;
11414;SDS011;5763;42.714;23.244;2023-07-02T08:54:27;9.30;;;7.28;;
11414;SDS011;5763;42.714;23.244;2023-07-02T08:56:54;9.63;;;7.07;;
11414;SDS011;5763;42.714;23.244;2023-07-02T08:59:21;8.20;;;6.47;;
11414;SDS011;5763;42.714;23.244;2023-07-02T09:01:48;11.75;;;6.63;;
11414;SDS011;5763;42.714;23.244;2023-07-02T09:04:21;11.20;;;7.07;;
11414;SDS011;5763;42.714;23.244;2023-07-02T09:06:49;10.77;;;7.57;;
11414;SDS011;5763;42.714;23.244;2023-07-02T09:09:17;13.15;;;9.32;;
11414;SDS011;5763;42.714;23.244;2023-07-02T09:11:47;11.45;;;7.32;;
11414;SDS011;5763;42.714;23.244;2023-07-02T09:14:23;9.23;;;6.55;;
11414;SDS011;5763;42.714;23.244;2023-07-02T09:17:00;9.75;;;7.18;;
11414;SDS011;5763;42.714;23.244;2023-07-02T09:19:30;9.38;;;6.85;;
11414;SDS011;5763;42.714;23.244;2023-07-02T09:21:58;8.13;;;5.97;;
11414;SDS011;5763;42.714;23.244;2023-07-02T09:24:26;7.80;;;6.28;;
11414;SDS011;5763;42.714;23.244;2023-07-02T09:26:55;10.07;;;7.85;;
11414;SDS011;5763;42.714;23.244;2023-07-02T09:29:23;12.52;;;10.52;;
11414;SDS011;5763;42.714;23.244;2023-07-02T09:31:52;14.50;;;13.00;;
11414;SDS011;5763;42.714;23.244;2023-07-02T09:34:19;12.77;;;10.90;;
11414;SDS011;5763;42.714;23.244;2023-07-02T09:36:47;12.50;;;9.70;;
11414;SDS011;5763;42.714;23.244;2023-07-02T09:39:14;8.95;;;8.05;;
11414;SDS011;5763;42.714;23.244;2023-07-02T09:41:45;10.70;;;7.07;;
11414;SDS011;5763;42.714;23.244;2023-07-02T09:44:15;7.72;;;5.72;;
11414;SDS011;5763;42.714;23.244;2023-07-02T09:46:45;8.48;;;5.65;;
11414;SDS011;5763;42.714;23.244;2023-07-02T09:49:16;6.65;;;5.15;;
11414;SDS011;5763;42.714;23.244;2023-07-02T09:51:43;7.10;;;4.85;;
11414;SDS011;5763;42.714;23.244;2023-07-02T09:54:12;10.75;;;6.60;;
11414;SDS011;5763;42.714;23.244;2023-07-02T09:56:39;9.35;;;7.35;;
11414;SDS011;5763;42.714;23.244;2023-07-02T09:59:07;11.05;;;8.90;;
11414;SDS011;5763;42.714;23.244;2023-07-02T10:01:34;10.93;;;9.18;;
11414;SDS011;5763;42.714;23.244;2023-07-02T10:04:09;8.52;;;6.75;;
11414;SDS011;5763;42.714;23.244;2023-07-02T10:06:43;10.02;;;8.27;;
11414;SDS011;5763;42.714;23.244;2023-07-02T10:09:13;9.35;;;8.02;;
11414;SDS011;5763;42.714;23.244;2023-07-02T10:11:40;10.45;;;7.35;;
11414;SDS011;5763;42.714;23.244;2023-07-02T10:14:08;8.02;;;6.35;;
11414;SDS011;5763;42.714;23.244;2023-07-02T10:16:47;8.20;;;6.70;;
11414;SDS011;5763;42.714;23.244;2023-07-02T10:19:15;8.68;;;6.40;;
11414;SDS011;5763;42.714;23.244;2023-07-02T10:21:41;8.52;;;6.35;;
11414;SDS011;5763;42.714;23.244;2023-07-02T10:24:11;8.38;;;5.95;;
11414;SDS011;5763;42.714;23.244;2023-07-02T10:26:50;6.55;;;5.60;;
11414;SDS011;5763;42.714;23.244;2023-07-02T10:29:18;9.27;;;6.13;;
11414;SDS011;5763;42.714;23.244;2023-07-02T10:31:49;7.28;;;5.13;;
11414;SDS011;5763;42.714;23.244;2023-07-02T10:34:27;6.63;;;5.60;;
11414;SDS011;5763;42.714;23.244;2023-07-02T10:36:54;7.72;;;6.35;;
11414;SDS011;5763;42.714;23.244;2023-07-02T10:39:21;18.30;;;7.30;;
11414;SDS011;5763;42.714;23.244;2023-07-02T10:41:50;5.63;;;4.50;;
11414;SDS011;5763;42.714;23.244;2023-07-02T10:44:17;5.32;;;4.35;;
11414;SDS011;5763;42.714;23.244;2023-07-02T10:46:44;5.40;;;4.07;;
11414;SDS011;5763;42.714;23.244;2023-07-02T10:49:11;4.00;;;3.60;;
11414;SDS011;5763;42.714;23.244;2023-07-02T10:51:38;7.45;;;4.85;;
11414;SDS011;5763;42.714;23.244;2023-07-02T10:54:05;5.88;;;4.38;;
11414;SDS011;5763;42.714;23.244;2023-07-02T10:56:32;6.47;;;4.55;;
11414;SDS011;5763;42.714;23.244;2023-07-02T10:59:00;4.45;;;3.60;;
11414;SDS011;5763;42.714;23.244;2023-07-02T11:01:27;5.00;;;3.80;;
11414;SDS011;5763;42.714;23.244;2023-07-02T11:03:59;5.75;;;4.03;;
11414;SDS011;5763;42.714;23.244;2023-07-02T11:06:26;4.47;;;3.78;;
11414;SDS011;5763;42.714;23.244;2023-07-02T11:08:54;4.63;;;3.95;;
11414;SDS011;5763;42.714;23.244;2023-07-02T11:11:21;4.82;;;4.32;;
11414;SDS011;5763;42.714;23.244;2023-07-02T11:13:49;5.72;;;4.10;;
11414;SDS011;5763;42.714;23.244;2023-07-02T11:16:21;5.88;;;4.55;;
11414;SDS011;5763;42.714;23.244;2023-07-02T11:18:51;4.75;;;3.95;;
11414;SDS011;5763;42.714;23.244;2023-07-02T11:21:19;5.43;;;4.40;;
11414;SDS011;5763;42.714;23.244;2023-07-02T11:23:45;5.70;;;4.15;;
11414;SDS011;5763;42.714;23.244;2023-07-02T11:26:12;7.80;;;4.63;;
11414;SDS011;5763;42.714;23.244;2023-07-02T11:28:47;8.20;;;4.70;;
11414;SDS011;5763;42.714;23.244;2023-07-02T11:31:25;6.80;;;4.43;;
11414;SDS011;5763;42.714;23.244;2023-07-02T11:33:53;5.82;;;5.00;;
11414;SDS011;5763;42.714;23.244;2023-07-02T11:36:20;5.65;;;3.50;;
11414;SDS011;5763;42.714;23.244;2023-07-02T11:38:48;4.65;;;4.00;;
11414;SDS011;5763;42.714;23.244;2023-07-02T11:41:16;4.68;;;3.65;;
11414;SDS011;5763;42.714;23.244;2023-07-02T11:43:43;4.75;;;4.03;;
11414;SDS011;5763;42.714;23.244;2023-07-02T11:46:10;4.18;;;3.70;;
11414;SDS011;5763;42.714;23.244;2023-07-02T11:48:38;4.72;;;3.25;;
11414;SDS011;5763;42.714;23.244;2023-07-02T11:51:05;4.30;;;3.80;;
11414;SDS011;5763;42.714;23.244;2023-07-02T11:53:32;5.70;;;4.00;;
11414;SDS011;5763;42.714;23.244;2023-07-02T11:55:59;4.32;;;3.03;;
11414;SDS011;5763;42.714;23.244;2023-07-02T11:58:26;4.53;;;3.20;;
11414;SDS011;5763;42.714;23.244;2023-07-02T12:00:54;4.32;;;3.35;;
11414;SDS011;5763;42.714;23.244;2023-07-02T12:03:24;5.10;;;3.33;;
11414;SDS011;5763;42.714;23.244;2023-07-02T12:05:53;4.78;;;3.50;;
11414;SDS011;5763;42.714;23.244;2023-07-02T12:08:21;3.97;;;3.25;;
11414;SDS011;5763;42.714;23.244;2023-07-02T12:10:48;4.72;;;3.10;;
11414;SDS011;5763;42.714;23.244;2023-07-02T12:13:15;4.80;;;3.72;;
11414;SDS011;5763;42.714;23.244;2023-07-02T12:15:41;4.05;;;3.05;;
11414;SDS011;5763;42.714;23.244;2023-07-02T12:18:08;5.00;;;3.13;;
11414;SDS011;5763;42.714;23.244;2023-07-02T12:20:36;4.40;;;3.65;;
11414;SDS011;5763;42.714;23.244;2023-07-02T12:23:04;5.47;;;3.72;;
11414;SDS011;5763;42.714;23.244;2023-07-02T12:25:31;5.32;;;4.13;;
11414;SDS011;5763;42.714;23.244;2023-07-02T12:27:58;7.28;;;4.68;;
11414;SDS011;5763;42.714;23.244;2023-07-02T12:30:24;5.00;;;4.43;;
11414;SDS011;5763;42.714;23.244;2023-07-02T12:32:51;5.40;;;4.53;;
11414;SDS011;5763;42.714;23.244;2023-07-02T12:35:18;6.78;;;4.80;;
11414;SDS011;5763;42.714;23.244;2023-07-02T12:37:45;7.43;;;4.80;;
11414;SDS011;5763;42.714;23.244;2023-07-02T12:40:14;6.55;;;5.10;;
11414;SDS011;5763;42.714;23.244;2023-07-02T12:42:41;4.72;;;4.32;;
11414;SDS011;5763;42.714;23.244;2023-07-02T12:45:09;5.75;;;4.82;;
11414;SDS011;5763;42.714;23.244;2023-07-02T12:47:36;5.32;;;4.78;;
11414;SDS011;5763;42.714;23.244;2023-07-02T12:50:04;6.22;;;4.55;;
11414;SDS011;5763;42.714;23.244;2023-07-02T12:52:31;5.63;;;4.85;;
11414;SDS011;5763;42.714;23.244;2023-07-02T12:54:58;5.15;;;4.28;;
11414;SDS011;5763;42.714;23.244;2023-07-02T12:57:27;5.32;;;4.82;;
11414;SDS011;5763;42.714;23.244;2023-07-02T12:59:54;5.18;;;4.68;;
11414;SDS011;5763;42.714;23.244;2023-07-02T13:02:21;5.40;;;4.53;;
11414;SDS011;5763;42.714;23.244;2023-07-02T13:04:48;5.45;;;4.57;;
11414;SDS011;5763;42.714;23.244;2023-07-02T13:07:15;5.78;;;4.60;;
11414;SDS011;5763;42.714;23.244;2023-07-02T13:09:42;6.00;;;4.78;;
11414;SDS011;5763;42.714;23.244;2023-07-02T13:12:10;6.63;;;4.50;;
11414;SDS011;5763;42.714;23.244;2023-07-02T13:14:38;6.57;;;4.78;;
11414;SDS011;5763;42.714;23.244;2023-07-02T13:17:05;9.07;;;4.95;;
11414;SDS011;5763;42.714;23.244;2023-07-02T13:19:32;6.10;;;5.22;;
11414;SDS011;5763;42.714;23.244;2023-07-02T13:22:00;6.75;;;5.57;;
11414;SDS011;5763;42.714;23.244;2023-07-02T13:24:28;6.20;;;5.60;;
11414;SDS011;5763;42.714;23.244;2023-07-02T13:26:59;6.80;;;5.10;;
11414;SDS011;5763;42.714;23.244;2023-07-02T13:29:28;6.25;;;4.85;;
11414;SDS011;5763;42.714;23.244;2023-07-02T13:31:56;5.20;;;4.15;;
11414;SDS011;5763;42.714;23.244;2023-07-02T13:34:23;5.63;;;4.68;;
11414;SDS011;5763;42.714;23.244;2023-07-02T13:36:50;5.47;;;4.45;;
11414;SDS011;5763;42.714;23.244;2023-07-02T13:39:17;5.78;;;4.10;;
11414;SDS011;5763;42.714;23.244;2023-07-02T13:41:43;5.47;;;4.60;;
11414;SDS011;5763;42.714;23.244;2023-07-02T13:44:10;5.97;;;5.03;;
11414;SDS011;5763;42.714;23.244;2023-07-02T13:46:37;6.68;;;4.55;;
11414;SDS011;5763;42.714;23.244;2023-07-02T13:49:05;6.25;;;5.07;;
11414;SDS011;5763;42.714;23.244;2023-07-02T13:51:32;6.97;;;5.32;;
11414;SDS011;5763;42.714;23.244;2023-07-02T13:53:58;6.07;;;5.47;;
11414;SDS011;5763;42.714;23.244;2023-07-02T13:56:25;6.22;;;5.32;;
11414;SDS011;5763;42.714;23.244;2023-07-02T13:59:03;7.68;;;5.93;;
11414;SDS011;5763;42.714;23.244;2023-07-02T14:01:30;8.07;;;6.38;;
11414;SDS011;5763;42.714;23.244;2023-07-02T14:03:59;6.40;;;5.00;;
11414;SDS011;5763;42.714;23.244;2023-07-02T14:06:26;8.40;;;5.47;;
11414;SDS011;5763;42.714;23.244;2023-07-02T14:08:53;5.80;;;5.20;;
11414;SDS011;5763;42.714;23.244;2023-07-02T14:11:23;6.07;;;5.43;;
11414;SDS011;5763;42.714;23.244;2023-07-02T14:13:53;6.28;;;5.60;;
11414;SDS011;5763;42.714;23.244;2023-07-02T14:16:21;8.05;;;6.07;;
11414;SDS011;5763;42.714;23.244;2023-07-02T14:18:49;6.53;;;5.68;;
11414;SDS011;5763;42.714;23.244;2023-07-02T14:21:15;7.45;;;5.65;;
11414;SDS011;5763;42.714;23.244;2023-07-02T14:23:43;8.77;;;5.65;;
11414;SDS011;5763;42.714;23.244;2023-07-02T14:26:10;7.05;;;5.40;;
11414;SDS011;5763;42.714;23.244;2023-07-02T14:28:37;7.93;;;6.20;;
11414;SDS011;5763;42.714;23.244;2023-07-02T14:31:04;6.88;;;5.70;;
11414;SDS011;5763;42.714;23.244;2023-07-02T14:33:34;7.55;;;6.07;;
11414;SDS011;5763;42.714;23.244;2023-07-02T14:36:02;7.78;;;6.57;;
11414;SDS011;5763;42.714;23.244;2023-07-02T14:38:29;8.75;;;6.38;;
11414;SDS011;5763;42.714;23.244;2023-07-02T14:40:56;7.78;;;5.72;;
11414;SDS011;5763;42.714;23.244;2023-07-02T14:43:24;7.57;;;6.03;;
11414;SDS011;5763;42.714;23.244;2023-07-02T14:45:53;6.30;;;5.63;;
11414;SDS011;5763;42.714;23.244;2023-07-02T14:48:21;7.20;;;6.20;;